createdAt,value
2023-02-26T00:01:31.965Z,4.77
2023-02-26T00:04:03.323Z,5.03
2023-02-26T00:06:34.780Z,4.73
2023-02-26T00:09:03.673Z,4.63
2023-02-26T00:11:32.125Z,5.30
2023-02-26T00:13:59.439Z,5.17
2023-02-26T00:16:35.985Z,4.90
2023-02-26T00:19:08.379Z,4.93
2023-02-26T00:21:36.724Z,5.57
2023-02-26T00:24:06.565Z,5.03
2023-02-26T00:26:35.222Z,5.50
2023-02-26T00:29:03.809Z,5.20
2023-02-26T00:31:31.520Z,4.90
2023-02-26T00:33:59.215Z,5.07
2023-02-26T00:36:49.357Z,5.57
2023-02-26T00:39:32.640Z,5.20
2023-02-26T00:41:59.824Z,5.10
2023-02-26T00:44:27.187Z,5.03
2023-02-26T00:47:09.615Z,5.30
2023-02-26T00:50:04.772Z,4.97
2023-02-26T00:52:47.126Z,5.27
2023-02-26T00:55:14.032Z,5.00
2023-02-26T00:57:40.829Z,5.63
2023-02-26T01:00:09.232Z,5.60
2023-02-26T01:02:39.428Z,4.97
2023-02-26T01:05:07.647Z,5.73
2023-02-26T01:07:50.375Z,5.73
2023-02-26T01:10:18.249Z,5.77
2023-02-26T01:12:45.414Z,5.27
2023-02-26T01:15:13.115Z,5.60
2023-02-26T01:17:53.717Z,5.47
2023-02-26T01:20:25.291Z,5.27
2023-02-26T01:23:00.318Z,5.23
2023-02-26T01:25:44.131Z,6.00
2023-02-26T01:28:11.514Z,5.50
2023-02-26T01:30:39.197Z,6.00
2023-02-26T01:33:30.150Z,5.40
2023-02-26T01:36:19.830Z,6.13
2023-02-26T01:39:29.113Z,5.33
2023-02-26T01:42:15.628Z,5.30
2023-02-26T01:44:59.438Z,6.03
2023-02-26T01:47:41.294Z,5.40
2023-02-26T01:50:21.509Z,5.97
2023-02-26T01:52:48.313Z,6.00
2023-02-26T01:55:24.468Z,7.53
2023-02-26T01:57:55.916Z,5.97
2023-02-26T02:00:22.935Z,5.67
2023-02-26T02:02:51.209Z,6.03
2023-02-26T02:05:58.734Z,6.83
2023-02-26T02:08:25.841Z,6.17
2023-02-26T02:10:53.776Z,6.13
2023-02-26T02:13:40.725Z,6.67
2023-02-26T02:16:52.651Z,6.13
2023-02-26T02:19:52.828Z,6.40
2023-02-26T02:22:36.395Z,6.47
2023-02-26T02:25:53.886Z,6.80
2023-02-26T02:28:52.641Z,5.90
2023-02-26T02:31:28.514Z,6.20
2023-02-26T02:34:09.592Z,6.63
2023-02-26T02:37:08.203Z,6.77
2023-02-26T02:39:49.982Z,6.27
2023-02-26T02:42:26.298Z,5.90
2023-02-26T02:45:24.745Z,6.50
2023-02-26T02:48:01.668Z,6.47
2023-02-26T02:50:40.211Z,6.37
2023-02-26T02:53:33.302Z,5.90
2023-02-26T02:56:10.171Z,6.80
2023-02-26T02:58:46.266Z,6.13
2023-02-26T03:01:17.511Z,6.60
2023-02-26T03:04:03.061Z,6.30
2023-02-26T03:06:31.311Z,5.70
2023-02-26T03:09:00.332Z,5.97
2023-02-26T03:11:27.410Z,6.43
2023-02-26T03:13:55.292Z,5.97
2023-02-26T03:17:02.545Z,5.80
2023-02-26T03:19:48.957Z,6.10
2023-02-26T03:22:40.007Z,6.50
2023-02-26T03:25:23.504Z,6.23
2023-02-26T03:27:56.121Z,6.37
2023-02-26T03:30:59.119Z,6.47
2023-02-26T03:34:01.191Z,5.83
2023-02-26T03:36:45.439Z,6.47
2023-02-26T03:39:34.280Z,6.60
2023-02-26T03:42:37.188Z,6.23
2023-02-26T03:45:14.957Z,5.80
2023-02-26T03:47:50.072Z,6.20
2023-02-26T03:50:35.887Z,6.50
2023-02-26T03:53:25.515Z,6.23
2023-02-26T03:56:23.710Z,6.33
2023-02-26T03:59:10.060Z,5.70
2023-02-26T04:01:59.100Z,5.83
2023-02-26T04:04:50.214Z,6.70
2023-02-26T04:07:19.909Z,6.50
2023-02-26T04:09:51.303Z,6.23
2023-02-26T04:12:28.145Z,6.10
2023-02-26T04:14:57.132Z,6.40
2023-02-26T04:17:25.236Z,6.50
2023-02-26T04:19:52.064Z,6.60
2023-02-26T04:22:19.418Z,6.40
2023-02-26T04:24:46.328Z,6.50
2023-02-26T04:27:14.756Z,6.37
2023-02-26T04:29:41.786Z,6.70
2023-02-26T04:32:08.963Z,6.90
2023-02-26T04:34:37.561Z,6.77
2023-02-26T04:37:06.331Z,6.53
2023-02-26T04:39:33.230Z,6.60
2023-02-26T04:42:00.091Z,6.13
2023-02-26T04:44:27.745Z,6.10
2023-02-26T04:46:54.657Z,5.80
2023-02-26T04:49:21.747Z,6.10
2023-02-26T04:51:48.830Z,6.23
2023-02-26T04:54:16.989Z,6.17
2023-02-26T04:56:44.089Z,6.40
2023-02-26T04:59:11.237Z,6.17
2023-02-26T05:01:38.180Z,6.07
2023-02-26T05:04:08.184Z,5.83
2023-02-26T05:06:35.359Z,5.50
2023-02-26T05:09:02.213Z,5.63
2023-02-26T05:11:29.083Z,5.93
2023-02-26T05:13:56.482Z,5.83
2023-02-26T05:16:23.636Z,5.70
2023-02-26T05:18:51.553Z,6.07
2023-02-26T05:21:19.012Z,6.27
2023-02-26T05:23:46.293Z,6.67
2023-02-26T05:26:13.447Z,6.30
2023-02-26T05:28:41.042Z,6.23
2023-02-26T05:31:08.543Z,6.40
2023-02-26T05:33:35.862Z,6.40
2023-02-26T05:36:02.767Z,6.13
2023-02-26T05:38:29.627Z,7.20
2023-02-26T05:40:58.378Z,6.60
2023-02-26T05:43:27.337Z,7.00
2023-02-26T05:45:55.708Z,6.43
2023-02-26T05:48:23.763Z,6.20
2023-02-26T05:50:51.436Z,6.90
2023-02-26T05:53:19.263Z,6.13
2023-02-26T05:55:47.407Z,6.53
2023-02-26T05:58:15.525Z,6.33
2023-02-26T06:00:42.845Z,6.50
2023-02-26T06:03:09.743Z,6.33
2023-02-26T06:05:37.138Z,6.07
2023-02-26T06:08:06.046Z,6.07
2023-02-26T06:10:33.572Z,6.17
2023-02-26T06:13:01.197Z,6.47
2023-02-26T06:15:28.048Z,5.80
2023-02-26T06:17:54.891Z,6.50
2023-02-26T06:20:21.903Z,6.23
2023-02-26T06:22:48.858Z,6.80
2023-02-26T06:25:15.796Z,6.20
2023-02-26T06:27:42.918Z,6.80
2023-02-26T06:30:10.714Z,6.87
2023-02-26T06:32:37.641Z,6.20
2023-02-26T06:35:06.337Z,6.33
2023-02-26T06:37:35.670Z,6.77
2023-02-26T06:40:06.802Z,6.83
2023-02-26T06:42:33.771Z,6.80
2023-02-26T06:45:00.676Z,6.70
2023-02-26T06:47:28.849Z,7.03
2023-02-26T06:49:55.930Z,6.20
2023-02-26T06:52:22.863Z,6.17
2023-02-26T06:54:49.872Z,6.47
2023-02-26T06:57:16.857Z,6.27
2023-02-26T06:59:43.676Z,7.17
2023-02-26T07:02:18.865Z,6.03
2023-02-26T07:04:46.030Z,6.27
2023-02-26T07:07:13.813Z,6.73
2023-02-26T07:09:41.007Z,6.93
2023-02-26T07:12:08.322Z,6.33
2023-02-26T07:14:35.782Z,6.73
2023-02-26T07:17:03.389Z,6.63
2023-02-26T07:19:30.492Z,6.97
2023-02-26T07:21:57.348Z,6.50
2023-02-26T07:24:24.171Z,6.47
2023-02-26T07:26:51.321Z,6.70
2023-02-26T07:29:18.518Z,6.63
2023-02-26T07:31:46.080Z,6.87
2023-02-26T07:34:13.027Z,7.03
2023-02-26T07:36:39.868Z,6.97
2023-02-26T07:39:06.925Z,6.73
2023-02-26T07:41:33.710Z,6.10
2023-02-26T07:44:01.830Z,6.37
2023-02-26T07:46:29.150Z,6.83
2023-02-26T07:48:56.161Z,6.33
2023-02-26T07:51:23.368Z,6.50
2023-02-26T07:53:50.265Z,6.70
2023-02-26T07:56:17.103Z,6.00
2023-02-26T07:58:43.947Z,6.13
2023-02-26T08:01:10.835Z,5.97
2023-02-26T08:03:37.655Z,5.87
2023-02-26T08:06:05.235Z,5.77
2023-02-26T08:08:33.313Z,4.93
2023-02-26T08:11:01.686Z,5.10
2023-02-26T08:13:28.615Z,5.83
2023-02-26T08:15:55.518Z,5.70
2023-02-26T08:18:22.788Z,5.30
2023-02-26T08:20:52.451Z,5.63
2023-02-26T08:23:20.186Z,5.83
2023-02-26T08:25:47.066Z,5.17
2023-02-26T08:28:13.915Z,5.07
2023-02-26T08:30:40.731Z,5.30
2023-02-26T08:33:07.652Z,5.27
2023-02-26T08:35:34.495Z,5.50
2023-02-26T08:38:04.361Z,5.00
2023-02-26T08:40:31.134Z,5.70
2023-02-26T08:43:00.050Z,4.93
2023-02-26T08:45:27.079Z,5.47
2023-02-26T08:47:57.184Z,5.47
2023-02-26T08:50:26.433Z,5.20
2023-02-26T08:52:53.274Z,5.20
2023-02-26T08:55:20.655Z,4.70
2023-02-26T08:57:47.744Z,4.73
2023-02-26T09:00:18.816Z,4.47
2023-02-26T09:02:46.633Z,5.00
2023-02-26T09:05:15.167Z,5.03
2023-02-26T09:07:43.304Z,4.90
2023-02-26T09:10:11.769Z,5.10
2023-02-26T09:12:38.691Z,4.67
2023-02-26T09:15:08.530Z,4.97
2023-02-26T09:17:36.283Z,4.40
2023-02-26T09:20:04.963Z,4.23
2023-02-26T09:22:32.534Z,4.60
2023-02-26T09:24:59.706Z,4.93
2023-02-26T09:27:26.847Z,4.50
2023-02-26T09:29:53.912Z,4.83
2023-02-26T09:32:20.966Z,4.70
2023-02-26T09:34:51.126Z,4.67
2023-02-26T09:37:20.931Z,4.40
2023-02-26T09:39:54.809Z,4.10
2023-02-26T09:42:36.905Z,4.00
2023-02-26T09:45:05.841Z,4.20
2023-02-26T09:47:46.576Z,5.13
2023-02-26T09:50:23.094Z,4.50
2023-02-26T09:53:31.385Z,5.07
2023-02-26T09:56:21.597Z,6.23
2023-02-26T09:58:49.232Z,4.97
2023-02-26T10:01:51.980Z,7.07
2023-02-26T10:04:51.853Z,6.07
2023-02-26T10:07:59.797Z,5.00
2023-02-26T10:10:35.582Z,8.40
2023-02-26T10:13:02.914Z,8.20
2023-02-26T10:15:42.539Z,8.77
2023-02-26T10:18:32.888Z,6.93
2023-02-26T10:21:10.198Z,6.10
2023-02-26T10:23:48.756Z,5.97
2023-02-26T10:26:39.097Z,6.77
2023-02-26T10:29:34.508Z,8.83
2023-02-26T10:32:33.219Z,5.97
2023-02-26T10:35:14.976Z,4.13
2023-02-26T10:37:53.793Z,3.97
2023-02-26T10:40:50.153Z,3.60
2023-02-26T10:43:29.462Z,3.27
2023-02-26T10:46:20.265Z,3.80
2023-02-26T10:49:37.679Z,3.70
2023-02-26T10:52:19.165Z,3.70
2023-02-26T10:55:38.867Z,3.73
2023-02-26T10:58:13.203Z,3.53
2023-02-26T11:00:43.677Z,3.27
2023-02-26T11:03:22.092Z,3.93
2023-02-26T11:05:48.967Z,4.23
2023-02-26T11:08:28.822Z,3.40
2023-02-26T11:11:03.308Z,3.30
2023-02-26T11:13:34.306Z,3.27
2023-02-26T11:16:13.730Z,4.63
2023-02-26T11:19:01.150Z,4.53
2023-02-26T11:21:36.020Z,3.30
2023-02-26T11:24:11.436Z,3.60
2023-02-26T11:26:42.524Z,3.50
2023-02-26T11:29:23.006Z,3.17
2023-02-26T11:32:01.298Z,3.50
2023-02-26T11:34:30.662Z,3.77
2023-02-26T11:37:01.584Z,3.67
2023-02-26T11:39:34.444Z,3.50
2023-02-26T11:42:03.767Z,3.53
2023-02-26T11:44:48.583Z,3.33
2023-02-26T11:47:22.043Z,3.50
2023-02-26T11:49:56.191Z,3.30
2023-02-26T11:52:28.302Z,3.70
2023-02-26T11:55:27.588Z,4.00
2023-02-26T11:57:57.981Z,3.50
2023-02-26T12:00:37.794Z,4.10
2023-02-26T12:03:15.527Z,4.43
2023-02-26T12:05:43.312Z,4.10
2023-02-26T12:08:30.033Z,4.07
2023-02-26T12:11:28.798Z,3.80
2023-02-26T12:14:19.583Z,3.70
2023-02-26T12:17:19.016Z,4.27
2023-02-26T12:20:25.502Z,3.63
2023-02-26T12:23:28.906Z,3.70
2023-02-26T12:26:40.293Z,3.57
2023-02-26T12:29:42.077Z,3.67
2023-02-26T12:32:27.503Z,3.80
2023-02-26T12:35:30.889Z,4.47
2023-02-26T12:38:21.371Z,3.43
2023-02-26T12:41:22.306Z,3.30
2023-02-26T12:43:55.901Z,4.87
2023-02-26T12:46:58.506Z,4.73
2023-02-26T12:49:47.541Z,3.57
2023-02-26T12:52:45.001Z,3.37
2023-02-26T12:55:39.511Z,3.50
2023-02-26T12:58:32.385Z,3.17
2023-02-26T13:01:41.803Z,3.07
2023-02-26T13:04:42.696Z,3.37
2023-02-26T13:07:32.104Z,2.83
2023-02-26T13:10:54.082Z,3.17
2023-02-26T13:13:48.268Z,2.90
2023-02-26T13:16:35.473Z,2.90
2023-02-26T13:19:13.979Z,3.37
2023-02-26T13:21:50.698Z,2.90
2023-02-26T13:25:18.203Z,2.80
2023-02-26T13:27:47.735Z,2.80
2023-02-26T13:30:29.303Z,2.80
2023-02-26T13:32:59.765Z,2.97
2023-02-26T13:35:48.465Z,2.90
2023-02-26T13:38:42.138Z,3.20
2023-02-26T13:41:38.289Z,3.03
2023-02-26T13:44:42.644Z,3.17
2023-02-26T13:47:42.618Z,3.37
2023-02-26T13:51:03.013Z,4.07
2023-02-26T13:53:35.641Z,3.47
2023-02-26T13:56:31.674Z,3.10
2023-02-26T13:59:20.146Z,3.10
2023-02-26T14:01:49.862Z,3.60
2023-02-26T14:04:20.228Z,4.10
2023-02-26T14:06:52.856Z,3.50
2023-02-26T14:09:22.747Z,3.17
2023-02-26T14:12:12.797Z,3.20
2023-02-26T14:14:41.239Z,3.17
2023-02-26T14:17:08.220Z,2.90
2023-02-26T14:19:45.739Z,3.00
2023-02-26T14:22:23.660Z,3.00
2023-02-26T14:25:35.032Z,2.70
2023-02-26T14:28:36.509Z,3.03
2023-02-26T14:31:03.589Z,2.90
2023-02-26T14:33:39.776Z,2.77
2023-02-26T14:36:32.132Z,2.70
2023-02-26T14:39:05.367Z,3.10
2023-02-26T14:41:41.153Z,3.10
2023-02-26T14:44:28.654Z,3.27
2023-02-26T14:46:58.502Z,2.67
2023-02-26T14:49:37.253Z,2.90
2023-02-26T14:52:31.532Z,3.20
2023-02-26T14:55:21.765Z,3.50
2023-02-26T14:58:27.823Z,3.50
2023-02-26T15:01:12.730Z,3.17
2023-02-26T15:04:08.603Z,3.00
2023-02-26T15:06:58.645Z,3.00
2023-02-26T15:10:06.467Z,2.73
2023-02-26T15:12:58.002Z,4.73
2023-02-26T15:15:37.946Z,4.07
2023-02-26T15:18:44.501Z,3.30
2023-02-26T15:21:38.927Z,2.90
2023-02-26T15:24:09.907Z,3.00
2023-02-26T15:27:08.314Z,3.20
2023-02-26T15:29:41.343Z,3.17
2023-02-26T15:32:21.911Z,3.10
2023-02-26T15:34:59.550Z,3.00
2023-02-26T15:37:33.410Z,3.53
2023-02-26T15:40:04.967Z,3.40
2023-02-26T15:42:39.679Z,3.40
2023-02-26T15:45:31.408Z,3.50
2023-02-26T15:48:05.907Z,3.23
2023-02-26T15:50:41.694Z,3.20
2023-02-26T15:53:23.937Z,3.23
2023-02-26T15:55:56.044Z,3.53
2023-02-26T15:58:45.152Z,3.33
2023-02-26T16:01:18.466Z,3.33
2023-02-26T16:03:46.332Z,3.40
2023-02-26T16:06:25.984Z,3.13
2023-02-26T16:08:53.146Z,3.37
2023-02-26T16:11:22.319Z,3.47
2023-02-26T16:13:52.914Z,3.10
2023-02-26T16:16:28.346Z,3.47
2023-02-26T16:18:57.838Z,3.23
2023-02-26T16:21:36.156Z,3.20
2023-02-26T16:24:16.319Z,3.30
2023-02-26T16:26:52.149Z,3.30
2023-02-26T16:29:24.247Z,3.50
2023-02-26T16:31:56.094Z,3.27
2023-02-26T16:34:48.965Z,3.30
2023-02-26T16:37:37.833Z,3.30
2023-02-26T16:40:25.748Z,3.57
2023-02-26T16:43:17.224Z,3.17
2023-02-26T16:45:50.950Z,3.50
2023-02-26T16:48:25.979Z,3.27
2023-02-26T16:51:20.487Z,3.30
2023-02-26T16:53:55.140Z,3.43
2023-02-26T16:56:31.873Z,3.50
2023-02-26T16:59:14.093Z,2.90
2023-02-26T17:02:01.406Z,3.63
2023-02-26T17:04:35.838Z,3.73
2023-02-26T17:07:16.424Z,3.40
2023-02-26T17:09:55.771Z,3.80
2023-02-26T17:12:39.520Z,3.50
2023-02-26T17:15:37.517Z,3.20
2023-02-26T17:18:05.090Z,3.60
2023-02-26T17:20:37.072Z,3.30
2023-02-26T17:23:09.032Z,3.40
2023-02-26T17:25:47.110Z,3.90
2023-02-26T17:28:46.190Z,4.50
2023-02-26T17:31:13.284Z,6.77
2023-02-26T17:33:45.008Z,5.97
2023-02-26T17:36:18.707Z,5.03
2023-02-26T17:38:51.120Z,4.43
2023-02-26T17:41:19.377Z,4.03
2023-02-26T17:43:46.594Z,3.90
2023-02-26T17:46:13.527Z,3.63
2023-02-26T17:48:40.467Z,3.60
2023-02-26T17:51:09.166Z,3.90
2023-02-26T17:53:40.864Z,3.90
2023-02-26T17:56:21.702Z,3.93
2023-02-26T17:58:49.965Z,5.23
2023-02-26T18:01:16.819Z,5.53
2023-02-26T18:03:44.100Z,4.40
2023-02-26T18:06:15.345Z,4.50
2023-02-26T18:08:43.276Z,4.47
2023-02-26T18:11:13.556Z,4.83
2023-02-26T18:13:40.611Z,4.60
2023-02-26T18:16:16.932Z,4.40
2023-02-26T18:18:44.335Z,4.50
2023-02-26T18:21:12.041Z,4.40
2023-02-26T18:23:47.680Z,4.00
2023-02-26T18:26:19.815Z,4.00
2023-02-26T18:28:47.828Z,4.33
2023-02-26T18:31:19.813Z,4.17
2023-02-26T18:33:47.639Z,4.40
2023-02-26T18:36:34.288Z,5.07
2023-02-26T18:39:16.643Z,4.57
2023-02-26T18:41:52.302Z,4.40
2023-02-26T18:44:19.332Z,4.53
2023-02-26T18:46:48.252Z,4.77
2023-02-26T18:49:23.607Z,4.07
2023-02-26T18:51:50.944Z,4.10
2023-02-26T18:54:17.756Z,4.33
2023-02-26T18:56:47.288Z,4.00
2023-02-26T18:59:19.495Z,4.10
2023-02-26T19:01:59.202Z,4.10
2023-02-26T19:04:31.205Z,15.10
2023-02-26T19:06:58.363Z,18.63
2023-02-26T19:09:27.180Z,33.67
2023-02-26T19:11:54.674Z,28.00
2023-02-26T19:14:29.222Z,9.50
2023-02-26T19:16:56.204Z,7.23
2023-02-26T19:19:35.619Z,5.97
2023-02-26T19:22:02.901Z,6.20
2023-02-26T19:24:35.407Z,5.77
2023-02-26T19:27:09.114Z,6.00
2023-02-26T19:29:47.704Z,4.93
2023-02-26T19:32:26.552Z,5.50
2023-02-26T19:34:53.633Z,6.10
2023-02-26T19:37:20.666Z,11.70
2023-02-26T19:40:08.070Z,18.70
2023-02-26T19:42:35.407Z,17.90
2023-02-26T19:45:10.387Z,18.47
2023-02-26T19:47:37.347Z,13.73
2023-02-26T19:50:08.524Z,15.47
2023-02-26T19:52:39.643Z,16.37
2023-02-26T19:55:08.495Z,14.07
2023-02-26T19:57:35.403Z,17.87
2023-02-26T20:00:03.214Z,20.83
2023-02-26T20:02:39.526Z,29.00
2023-02-26T20:05:11.595Z,34.67
2023-02-26T20:07:43.883Z,37.20
2023-02-26T20:10:16.111Z,37.33
2023-02-26T20:12:50.032Z,33.57
2023-02-26T20:15:20.000Z,31.93
2023-02-26T20:17:57.817Z,31.63
2023-02-26T20:20:28.497Z,21.30
2023-02-26T20:22:58.593Z,19.37
2023-02-26T20:25:26.063Z,18.17
2023-02-26T20:27:55.732Z,26.43
2023-02-26T20:30:26.697Z,22.03
2023-02-26T20:32:56.679Z,22.20
2023-02-26T20:35:25.306Z,24.13
2023-02-26T20:37:52.247Z,21.83
2023-02-26T20:40:21.430Z,23.47
2023-02-26T20:42:56.471Z,21.50
2023-02-26T20:45:26.522Z,21.03
2023-02-26T20:47:59.830Z,16.47
2023-02-26T20:50:27.502Z,13.47
2023-02-26T20:52:57.212Z,17.17
2023-02-26T20:55:34.041Z,18.37
2023-02-26T20:58:05.168Z,19.87
2023-02-26T21:00:33.067Z,15.07
2023-02-26T21:03:00.000Z,16.13
2023-02-26T21:05:28.806Z,14.73
2023-02-26T21:07:58.395Z,13.50
2023-02-26T21:10:28.611Z,11.27
2023-02-26T21:12:55.431Z,9.87
2023-02-26T21:15:24.187Z,7.43
2023-02-26T21:17:51.318Z,7.20
2023-02-26T21:20:24.800Z,7.30
2023-02-26T21:22:51.858Z,6.43
2023-02-26T21:25:18.953Z,6.73
2023-02-26T21:27:46.018Z,8.60
2023-02-26T21:30:25.422Z,7.57
2023-02-26T21:32:52.350Z,10.60
2023-02-26T21:35:19.328Z,9.53
2023-02-26T21:37:46.631Z,9.10
2023-02-26T21:40:15.873Z,9.87
2023-02-26T21:42:49.720Z,8.20
2023-02-26T21:45:19.756Z,7.03
2023-02-26T21:47:46.667Z,7.47
2023-02-26T21:50:19.110Z,8.77
2023-02-26T21:52:46.413Z,7.77
2023-02-26T21:55:13.421Z,9.87
2023-02-26T21:57:40.403Z,10.50
2023-02-26T22:00:12.051Z,12.87
2023-02-26T22:02:40.266Z,12.07
2023-02-26T22:05:07.411Z,10.10
2023-02-26T22:07:34.241Z,12.37
2023-02-26T22:10:01.062Z,12.27
2023-02-26T22:12:27.857Z,13.53
2023-02-26T22:14:57.503Z,14.00
2023-02-26T22:17:24.679Z,14.90
2023-02-26T22:19:54.709Z,13.80
2023-02-26T22:22:24.325Z,13.90
2023-02-26T22:24:51.454Z,11.27
2023-02-26T22:27:18.447Z,12.73
2023-02-26T22:29:47.973Z,14.27
2023-02-26T22:32:14.790Z,16.13
2023-02-26T22:34:41.731Z,15.07
2023-02-26T22:37:11.763Z,13.03
2023-02-26T22:39:42.485Z,16.27
2023-02-26T22:42:09.381Z,12.87
2023-02-26T22:44:36.272Z,10.70
2023-02-26T22:47:05.889Z,11.63
2023-02-26T22:49:32.775Z,13.40
2023-02-26T22:52:02.567Z,12.93
2023-02-26T22:54:29.612Z,14.77
2023-02-26T22:56:57.977Z,15.17
2023-02-26T22:59:25.444Z,14.23
2023-02-26T23:01:52.414Z,12.57
2023-02-26T23:04:19.481Z,11.03
2023-02-26T23:06:48.449Z,10.33
2023-02-26T23:09:18.589Z,10.77
2023-02-26T23:11:54.222Z,9.00
2023-02-26T23:14:21.204Z,7.83
2023-02-26T23:16:50.651Z,6.43
2023-02-26T23:19:18.081Z,6.93
2023-02-26T23:21:46.977Z,7.00
2023-02-26T23:24:14.054Z,6.57
2023-02-26T23:26:43.781Z,6.20
2023-02-26T23:29:11.349Z,5.93
2023-02-26T23:31:38.352Z,6.13
2023-02-26T23:34:06.966Z,6.10
2023-02-26T23:36:34.706Z,6.00
2023-02-26T23:39:04.236Z,5.90
2023-02-26T23:41:34.068Z,6.30
2023-02-26T23:44:00.920Z,6.37
2023-02-26T23:46:27.938Z,6.97
2023-02-26T23:48:55.594Z,5.97
2023-02-26T23:51:28.403Z,6.20
2023-02-26T23:53:55.546Z,6.37
2023-02-26T23:56:25.111Z,7.30
2023-02-26T23:58:52.340Z,6.30
